Terminal Aerodrome Forecast
Issued by NWS Wilmington, OH

Current Version | Previous Version | Text Only | Print | Product List | Glossary On
Versions: 1 2 3 4 5 6 7 8 9 10 11 12 13 14 15 16 17 18 19 20 21 22
000
FTUS41 KILN 260200 AAB
TAFDAY
TAF AMD
KDAY 260220Z 2602/2624 04014KT P6SM VCSH OVC015
      TEMPO 2602/2605 -SHRA OVC040
     FM260500 04014KT P6SM BKN040
     FM261300 01014KT P6SM SCT040=

USA.gov is the U.S. government's official web portal to all federal, state and local government web resources and services.